Time;durP1;ratioP1;P1;durP2;ratioP2;P2;SDS_P1;SDS_P2;PMS_P1;PMS_P2;Temp;Humidity;BMP_temperature;BMP_pressure;BME280_temperature;BME280_humidity;BME280_pressure;Samples;Min_cycle;Max_cycle;Signal;HPM_P1;HPM_P2
2022/08/26 08:23:07;;;;;;;10.47;9.07;;;22.70;99.90;;;;;;5066406;28;20906;-71
2022/08/26 08:25:34;;;;;;;10.97;9.40;;;22.50;99.90;;;;;;5051952;28;20467;-69
2022/08/26 08:28:01;;;;;;;10.10;9.27;;;22.50;99.90;;;;;;5050224;28;20508;-65
2022/08/26 08:30:28;;;;;;;10.67;9.57;;;22.60;99.90;;;;;;5052592;28;20440;-68
2022/08/26 08:32:55;;;;;;;11.27;10.23;;;22.70;99.90;;;;;;5051125;28;20839;-70
2022/08/26 08:35:25;;;;;;;11.23;10.10;;;22.70;99.90;;;;;;5045445;28;20468;-68
2022/08/26 08:37:53;;;;;;;10.00;9.00;;;22.80;99.90;;;;;;5045966;28;20475;-68
2022/08/26 08:40:23;;;;;;;10.37;9.37;;;22.90;99.90;;;;;;5050776;28;20443;-68
2022/08/26 08:42:56;;;;;;;11.63;10.53;;;23.10;99.90;;;;;;5025225;22;20492;-65
2022/08/26 08:45:31;;;;;;;9.70;9.00;;;23.50;99.90;;;;;;5018937;28;20446;-67
2022/08/26 08:48:01;;;;;;;10.57;9.50;;;23.90;99.90;;;;;;5018833;28;20456;-67
2022/08/26 08:50:31;;;;;;;9.97;9.00;;;24.20;99.90;;;;;;5014452;28;20445;-66
2022/08/26 08:53:07;;;;;;;8.83;8.07;;;24.40;99.90;;;;;;5014599;28;20871;-66
2022/08/26 08:55:58;;;;;;;10.10;8.07;;;24.60;99.90;;;;;;5016234;28;20449;-66
2022/08/26 08:58:31;;;;;;;10.47;8.60;;;24.90;99.90;;;;;;5022173;28;20834;-64
2022/08/26 09:01:03;;;;;;;9.33;7.90;;;25.30;99.90;;;;;;5022454;28;22150;-68
2022/08/26 09:03:41;;;;;;;10.20;7.90;;;25.70;99.90;;;;;;5020829;28;20476;-66
2022/08/26 09:06:15;;;;;;;8.67;7.97;;;26.30;99.90;;;;;;5020985;28;20453;-68
2022/08/26 09:08:44;;;;;;;8.20;7.40;;;26.70;99.90;;;;;;5012452;28;20459;-67
2022/08/26 09:11:14;;;;;;;7.87;7.27;;;27.10;99.90;;;;;;5019306;28;20841;-66
2022/08/26 09:13:47;;;;;;;7.50;6.80;;;27.40;99.90;;;;;;5019264;28;20445;-66
2022/08/26 09:16:18;;;;;;;7.23;6.53;;;27.40;99.90;;;;;;5014053;28;20465;-66
2022/08/26 09:18:59;;;;;;;7.13;6.37;;;27.80;99.90;;;;;;5007406;28;21204;-67
2022/08/26 09:21:26;;;;;;;6.50;5.90;;;28.20;99.90;;;;;;5015209;28;20499;-66
2022/08/26 09:23:55;;;;;;;7.37;6.67;;;28.70;99.90;;;;;;5013321;28;20950;-67
2022/08/26 09:26:26;;;;;;;7.30;6.60;;;29.10;98.60;;;;;;5009901;28;20476;-67
2022/08/26 09:28:57;;;;;;;5.83;5.33;;;29.60;97.30;;;;;;5012660;28;20955;-67
2022/08/26 09:31:26;;;;;;;8.43;6.00;;;30.00;96.10;;;;;;5012155;28;20473;-66
2022/08/26 09:34:07;;;;;;;6.27;5.77;;;30.00;94.50;;;;;;5005386;28;20501;-66
2022/08/26 09:36:36;;;;;;;6.27;5.60;;;30.10;94.10;;;;;;5001625;28;20453;-68
2022/08/26 09:39:05;;;;;;;6.27;5.67;;;29.80;94.60;;;;;;5002775;28;20509;-68
2022/08/26 09:41:34;;;;;;;7.50;6.20;;;30.00;94.50;;;;;;5009796;28;20796;-67
2022/08/26 09:44:17;;;;;;;5.93;5.43;;;30.30;93.30;;;;;;5010014;28;20516;-67
2022/08/26 09:46:55;;;;;;;6.67;6.17;;;30.90;93.20;;;;;;5009412;28;20449;-67
2022/08/26 09:49:33;;;;;;;6.13;5.73;;;31.60;91.30;;;;;;5009746;28;20449;-69
2022/08/26 09:52:10;;;;;;;5.37;4.87;;;32.10;90.80;;;;;;5010608;28;20557;-67
2022/08/26 09:54:38;;;;;;;8.47;5.80;;;32.80;89.50;;;;;;5010483;28;20450;-67
2022/08/26 09:57:19;;;;;;;10.10;6.13;;;32.90;87.30;;;;;;5012047;28;20536;-67
2022/08/26 09:59:48;;;;;;;5.97;5.57;;;32.80;86.60;;;;;;5012592;28;20450;-67
2022/08/26 10:02:45;;;;;;;9.17;6.10;;;32.90;85.90;;;;;;5012847;28;20518;-69
2022/08/26 10:05:18;;;;;;;7.53;6.13;;;33.20;86.10;;;;;;5005670;28;20466;-67
2022/08/26 10:07:48;;;;;;;8.17;7.37;;;33.50;84.30;;;;;;5012381;28;20449;-69
2022/08/26 10:10:20;;;;;;;8.60;7.27;;;33.40;82.30;;;;;;5012177;28;20480;-66
2022/08/26 10:12:55;;;;;;;9.00;7.03;;;33.30;83.80;;;;;;5012283;28;20462;-68
2022/08/26 10:15:24;;;;;;;7.40;6.70;;;33.40;85.10;;;;;;5011908;28;20451;-67
2022/08/26 10:17:59;;;;;;;9.90;8.37;;;33.80;84.60;;;;;;5012121;28;20500;-68
2022/08/26 10:20:29;;;;;;;9.03;7.20;;;34.20;80.80;;;;;;5012052;28;20754;-67
2022/08/26 10:23:00;;;;;;;9.60;7.63;;;34.80;79.00;;;;;;5011552;28;21010;-68
2022/08/26 10:25:32;;;;;;;7.07;6.37;;;35.00;78.20;;;;;;5011603;28;20470;-67
2022/08/26 10:28:07;;;;;;;9.33;6.87;;;35.30;77.10;;;;;;5011804;28;20512;-66
2022/08/26 10:30:40;;;;;;;8.67;7.10;;;35.70;74.70;;;;;;5011687;28;20441;-67
2022/08/26 10:33:09;;;;;;;9.17;6.27;;;35.70;70.80;;;;;;5011583;28;20481;-67
2022/08/26 10:35:50;;;;;;;9.03;6.97;;;35.30;73.30;;;;;;5011416;28;20754;-67
2022/08/26 10:38:22;;;;;;;9.03;7.67;;;35.30;71.20;;;;;;5011589;28;20453;-66
2022/08/26 10:40:54;;;;;;;13.50;7.43;;;34.90;71.20;;;;;;5011229;28;21035;-67
2022/08/26 10:43:27;;;;;;;13.07;6.80;;;34.70;72.60;;;;;;5011404;28;20454;-67
2022/08/26 10:45:56;;;;;;;9.50;6.63;;;34.80;73.10;;;;;;5010034;28;20453;-66
2022/08/26 10:48:30;;;;;;;9.97;7.20;;;34.90;73.50;;;;;;5011466;28;20448;-66
2022/08/26 10:50:58;;;;;;;11.50;7.60;;;35.20;70.70;;;;;;5011590;28;20482;-66
2022/08/26 10:53:36;;;;;;;12.97;6.90;;;34.80;70.50;;;;;;5011133;28;20482;-67
2022/08/26 10:56:08;;;;;;;8.50;6.73;;;34.60;70.80;;;;;;5010797;28;20454;-65
2022/08/26 10:58:55;;;;;;;9.73;7.27;;;34.40;70.20;;;;;;5011082;28;20932;-67
2022/08/26 11:01:45;;;;;;;8.40;7.40;;;34.10;70.00;;;;;;5011152;28;20470;-67
2022/08/26 11:04:39;;;;;;;10.70;7.00;;;33.10;71.90;;;;;;5011075;28;20461;-64
2022/08/26 11:07:29;;;;;;;9.33;7.60;;;33.40;76.20;;;;;;5011252;28;20446;-66
2022/08/26 11:09:56;;;;;;;11.40;8.00;;;33.60;75.20;;;;;;5011076;28;20450;-68
2022/08/26 11:12:53;;;;;;;9.97;7.03;;;33.10;76.50;;;;;;5010650;28;20505;-66
2022/08/26 11:16:08;;;;;;;8.63;7.73;;;33.00;76.60;;;;;;5010741;28;20545;-67
2022/08/26 11:18:45;;;;;;;8.97;6.50;;;32.70;78.40;;;;;;5010770;28;20875;-66
2022/08/26 11:21:49;;;;;;;11.17;7.20;;;33.40;78.00;;;;;;5010552;28;20501;-66
2022/08/26 11:24:44;;;;;;;14.30;7.80;;;33.60;76.80;;;;;;5010967;28;20942;-67
2022/08/26 11:27:52;;;;;;;8.97;6.40;;;34.40;74.80;;;;;;4981899;28;21161;-67
2022/08/26 11:30:54;;;;;;;7.87;7.17;;;35.40;72.00;;;;;;5010803;28;20544;-67
2022/08/26 11:33:56;;;;;;;12.40;6.80;;;36.00;69.40;;;;;;5010614;28;20906;-66
2022/08/26 11:37:05;;;;;;;9.47;7.40;;;36.20;67.50;;;;;;5010345;28;20453;-69
2022/08/26 11:39:36;;;;;;;10.50;7.40;;;36.30;70.20;;;;;;4990578;28;20835;-67
2022/08/26 11:42:16;;;;;;;12.80;8.33;;;36.50;68.10;;;;;;5010230;28;20465;-67
2022/08/26 11:44:43;;;;;;;9.10;7.80;;;37.10;66.70;;;;;;5010089;28;20943;-65
2022/08/26 11:47:16;;;;;;;10.33;7.40;;;37.00;65.70;;;;;;5010533;28;20468;-65
2022/08/26 11:49:43;;;;;;;7.93;7.17;;;37.30;67.00;;;;;;5010672;28;20500;-67
2022/08/26 11:52:13;;;;;;;17.80;8.20;;;37.70;64.40;;;;;;5010436;28;20508;-68
2022/08/26 11:54:40;;;;;;;12.27;7.03;;;38.10;62.10;;;;;;5010150;28;20482;-67
2022/08/26 11:57:12;;;;;;;11.70;6.97;;;39.10;61.60;;;;;;5010152;28;20983;-66
2022/08/26 11:59:41;;;;;;;8.80;6.43;;;39.50;59.70;;;;;;5010438;28;20452;-67
2022/08/26 12:02:15;;;;;;;12.87;8.00;;;39.70;59.00;;;;;;5010368;28;20690;-67
2022/08/26 12:04:47;;;;;;;9.50;6.80;;;39.30;58.40;;;;;;5009984;28;20489;-69
2022/08/26 12:07:15;;;;;;;10.57;6.80;;;39.30;58.50;;;;;;5010431;28;20927;-68
2022/08/26 12:09:53;;;;;;;11.67;7.10;;;39.40;59.30;;;;;;5010266;28;20811;-67
2022/08/26 12:12:26;;;;;;;8.17;7.30;;;39.60;57.50;;;;;;5010143;28;20481;-67
2022/08/26 12:15:08;;;;;;;13.63;7.30;;;38.60;59.30;;;;;;5009797;28;20452;-67
2022/08/26 12:17:38;;;;;;;10.40;7.27;;;39.10;59.30;;;;;;5009735;28;20460;-67
2022/08/26 12:20:06;;;;;;;10.80;7.23;;;39.40;59.30;;;;;;5009866;28;20462;-69
2022/08/26 12:22:34;;;;;;;14.57;7.00;;;39.60;56.90;;;;;;5009728;28;21019;-67
2022/08/26 12:25:04;;;;;;;8.43;6.50;;;39.60;58.10;;;;;;5009994;28;20530;-67
2022/08/26 12:27:32;;;;;;;14.93;7.37;;;39.50;56.90;;;;;;5009987;28;20446;-68
2022/08/26 12:30:08;;;;;;;10.10;7.13;;;39.20;55.50;;;;;;5009865;28;20456;-68
2022/08/26 12:32:38;;;;;;;10.13;7.30;;;38.10;58.40;;;;;;5009918;28;21030;-66
2022/08/26 12:35:08;;;;;;;12.70;7.43;;;38.30;58.50;;;;;;5009623;28;20458;-68
2022/08/26 12:37:39;;;;;;;10.67;7.93;;;37.70;58.70;;;;;;5009961;28;20442;-67
2022/08/26 12:40:33;;;;;;;10.23;7.40;;;37.10;59.30;;;;;;5009769;28;20449;-67
2022/08/26 12:43:00;;;;;;;10.53;8.50;;;36.30;60.30;;;;;;5009626;28;20607;-67
2022/08/26 12:45:29;;;;;;;9.53;8.37;;;34.40;65.00;;;;;;5009586;28;20450;-66
2022/08/26 12:48:00;;;;;;;10.50;8.20;;;33.60;67.90;;;;;;5009538;28;20450;-67
2022/08/26 12:50:29;;;;;;;9.97;7.93;;;33.90;70.00;;;;;;5009503;28;20964;-68
2022/08/26 12:53:00;;;;;;;11.57;7.47;;;34.80;65.80;;;;;;5009644;28;20493;-68
2022/08/26 12:55:38;;;;;;;8.10;6.90;;;35.90;65.70;;;;;;5009328;28;20467;-68
2022/08/26 12:58:27;;;;;;;12.90;7.60;;;37.30;61.20;;;;;;5009578;28;20958;-69
2022/08/26 13:00:55;;;;;;;10.90;6.97;;;38.60;59.40;;;;;;5004114;28;20449;-67
2022/08/26 13:03:37;;;;;;;8.13;6.57;;;39.70;57.00;;;;;;5009304;28;20446;-67
2022/08/26 13:06:12;;;;;;;7.70;6.27;;;39.50;53.50;;;;;;5009168;28;20449;-68
2022/08/26 13:08:40;;;;;;;11.73;7.93;;;39.10;57.30;;;;;;5011286;28;20447;-67
2022/08/26 13:11:11;;;;;;;8.20;6.07;;;39.50;54.40;;;;;;5013227;28;20846;-67
2022/08/26 13:13:39;;;;;;;10.80;5.77;;;40.00;53.40;;;;;;5013063;28;20473;-67
2022/08/26 13:16:07;;;;;;;9.17;6.13;;;39.90;52.00;;;;;;5012963;28;20540;-67
2022/08/26 13:18:35;;;;;;;8.73;5.80;;;40.30;51.50;;;;;;5013182;28;20450;-67
2022/08/26 13:21:10;;;;;;;8.47;5.63;;;38.10;51.90;;;;;;5012850;28;20505;-67
2022/08/26 13:23:37;;;;;;;7.67;5.00;;;38.20;52.60;;;;;;5013095;28;20437;-67
2022/08/26 13:26:04;;;;;;;8.17;5.10;;;37.90;50.40;;;;;;5012584;28;20457;-67
2022/08/26 13:28:31;;;;;;;7.27;5.20;;;37.30;52.00;;;;;;5013015;28;20456;-68
2022/08/26 13:30:58;;;;;;;9.77;4.93;;;37.80;53.50;;;;;;5012927;28;20468;-68
2022/08/26 13:33:26;;;;;;;7.20;4.80;;;37.40;52.80;;;;;;5012926;28;20722;-66
2022/08/26 13:35:54;;;;;;;10.00;5.23;;;36.70;52.80;;;;;;5012550;28;20864;-66
2022/08/26 13:38:21;;;;;;;5.33;4.60;;;36.70;52.70;;;;;;5012918;28;20449;-65
2022/08/26 13:40:48;;;;;;;5.17;4.67;;;37.10;53.50;;;;;;5012719;28;20445;-67
2022/08/26 13:43:15;;;;;;;8.40;5.60;;;36.80;53.30;;;;;;5013716;28;20442;-67
2022/08/26 13:45:43;;;;;;;7.40;5.40;;;35.30;54.00;;;;;;5013518;28;20479;-66
2022/08/26 13:48:10;;;;;;;8.60;5.50;;;33.50;57.50;;;;;;5012864;28;20485;-66
2022/08/26 13:50:37;;;;;;;11.03;6.50;;;32.30;61.80;;;;;;5012466;28;20446;-67
2022/08/26 13:53:05;;;;;;;10.33;6.70;;;31.50;65.10;;;;;;5012437;28;20485;-67
2022/08/26 13:55:32;;;;;;;12.53;6.40;;;31.00;66.00;;;;;;5012230;28;20437;-66
2022/08/26 13:57:59;;;;;;;9.53;6.50;;;30.70;69.60;;;;;;5012564;28;20441;-66
2022/08/26 14:00:26;;;;;;;9.57;6.33;;;30.40;69.20;;;;;;5012517;28;20544;-67
2022/08/26 14:02:52;;;;;;;12.67;6.80;;;30.20;70.10;;;;;;5012300;28;20476;-66
2022/08/26 14:05:20;;;;;;;7.90;6.80;;;30.00;69.30;;;;;;5011839;28;20862;-66
2022/08/26 14:07:47;;;;;;;11.20;7.17;;;29.70;70.30;;;;;;5012124;28;20622;-67
2022/08/26 14:10:15;;;;;;;10.20;6.27;;;29.60;72.50;;;;;;5012119;28;20453;-66
2022/08/26 14:12:44;;;;;;;12.00;7.43;;;29.50;71.60;;;;;;5008646;28;20557;-67
2022/08/26 14:15:14;;;;;;;13.13;6.67;;;29.50;72.50;;;;;;4996062;28;20890;-66
2022/08/26 14:17:42;;;;;;;10.77;7.27;;;29.70;73.10;;;;;;4996603;28;20479;-68
2022/08/26 14:20:12;;;;;;;11.40;7.73;;;29.80;72.40;;;;;;4998981;28;20596;-70
2022/08/26 14:22:41;;;;;;;14.63;7.03;;;29.90;74.60;;;;;;4996335;28;20484;-70
2022/08/26 14:25:10;;;;;;;7.90;6.50;;;30.10;72.60;;;;;;4998875;28;20952;-70
2022/08/26 14:27:39;;;;;;;13.20;7.53;;;30.20;71.40;;;;;;5002144;28;20838;-69
2022/08/26 14:30:07;;;;;;;10.80;9.53;;;30.00;72.00;;;;;;5000058;28;20454;-73
2022/08/26 14:32:35;;;;;;;9.90;8.83;;;29.70;72.00;;;;;;4994440;28;20475;-67
2022/08/26 14:35:02;;;;;;;10.03;7.50;;;29.50;71.70;;;;;;4995926;28;20545;-65
2022/08/26 14:37:30;;;;;;;11.27;7.33;;;29.40;73.00;;;;;;4997051;28;20446;-66
2022/08/26 14:39:57;;;;;;;11.83;8.00;;;29.30;74.60;;;;;;5002611;28;20463;-66
2022/08/26 14:42:29;;;;;;;12.27;7.20;;;29.20;75.80;;;;;;4999676;28;20482;-67
2022/08/26 14:45:01;;;;;;;11.23;8.23;;;29.10;76.40;;;;;;4996667;28;20998;-68
2022/08/26 14:47:28;;;;;;;11.63;7.73;;;29.00;76.80;;;;;;4992986;28;21631;-66
2022/08/26 14:49:55;;;;;;;11.63;6.97;;;28.90;76.80;;;;;;4997268;28;20490;-67
2022/08/26 14:52:22;;;;;;;12.27;8.43;;;28.80;78.00;;;;;;4998867;28;20505;-67
2022/08/26 14:54:48;;;;;;;9.67;7.80;;;28.80;76.80;;;;;;4998185;28;20490;-66
2022/08/26 14:57:15;;;;;;;8.73;7.83;;;28.60;76.90;;;;;;5015125;22;21716;-72
2022/08/26 14:59:45;;;;;;;10.30;8.13;;;28.60;81.20;;;;;;5036706;28;20331;-71
2022/08/26 15:02:15;;;;;;;10.63;7.60;;;28.60;84.20;;;;;;5041028;28;20539;-72
2022/08/26 15:04:42;;;;;;;10.90;7.27;;;28.60;83.70;;;;;;5049367;28;20440;-72
2022/08/26 15:07:09;;;;;;;10.50;7.30;;;28.50;84.30;;;;;;5050141;28;20861;-72
2022/08/26 15:09:37;;;;;;;7.77;6.97;;;28.50;84.30;;;;;;5048237;28;20471;-72
2022/08/26 15:12:04;;;;;;;8.50;7.10;;;28.50;81.60;;;;;;5050714;28;20483;-72
2022/08/26 15:14:32;;;;;;;7.80;6.93;;;28.50;84.20;;;;;;5044521;28;20563;-72
2022/08/26 15:16:58;;;;;;;13.27;6.90;;;28.50;80.30;;;;;;5050346;28;20455;-72
2022/08/26 15:19:28;;;;;;;10.27;6.90;;;28.50;78.80;;;;;;5050082;28;20474;-72
2022/08/26 15:21:54;;;;;;;11.53;7.23;;;28.50;79.20;;;;;;5049526;28;20459;-72
2022/08/26 15:24:24;;;;;;;7.10;6.23;;;28.40;78.80;;;;;;5045177;28;20522;-72
2022/08/26 15:26:51;;;;;;;11.37;7.13;;;28.40;82.20;;;;;;5049229;28;20466;-72
2022/08/26 15:29:19;;;;;;;9.10;7.10;;;28.40;82.50;;;;;;5050517;28;20475;-72
2022/08/26 15:31:46;;;;;;;10.30;7.80;;;28.40;85.10;;;;;;5049745;28;21016;-72
2022/08/26 15:34:13;;;;;;;10.50;7.53;;;28.50;85.40;;;;;;5049751;28;20887;-72
2022/08/26 15:36:43;;;;;;;8.80;7.40;;;28.40;86.10;;;;;;5048852;28;20560;-72
2022/08/26 15:39:10;;;;;;;12.63;8.13;;;28.50;87.90;;;;;;5050205;28;20468;-72
2022/08/26 15:41:38;;;;;;;10.70;7.60;;;28.50;86.20;;;;;;5049033;28;20444;-72
2022/08/26 15:44:06;;;;;;;9.00;7.63;;;28.40;84.30;;;;;;5047532;28;20477;-72
2022/08/26 15:46:33;;;;;;;10.73;7.77;;;28.40;85.40;;;;;;5048938;28;20816;-72
2022/08/26 15:49:01;;;;;;;7.97;7.17;;;28.40;86.00;;;;;;5047993;28;20468;-72
2022/08/26 15:51:30;;;;;;;9.40;8.07;;;28.40;85.50;;;;;;5049330;28;20975;-72
2022/08/26 15:53:59;;;;;;;12.80;7.00;;;28.40;85.90;;;;;;5050034;28;20475;-72
2022/08/26 15:56:28;;;;;;;11.67;8.00;;;28.30;87.90;;;;;;5047858;28;20931;-72
2022/08/26 15:58:56;;;;;;;16.30;7.37;;;28.20;86.30;;;;;;5049731;28;21001;-72
2022/08/26 16:01:24;;;;;;;11.03;7.50;;;27.70;85.80;;;;;;5048040;28;20510;-71
2022/08/26 16:03:51;;;;;;;15.40;7.50;;;26.90;89.80;;;;;;5046979;28;20803;-71
2022/08/26 16:06:20;;;;;;;16.73;7.50;;;26.30;91.50;;;;;;5049304;28;20540;-71
2022/08/26 16:08:49;;;;;;;7.30;6.70;;;25.90;93.50;;;;;;5046873;28;20474;-71
2022/08/26 16:11:17;;;;;;;9.53;6.70;;;25.00;96.70;;;;;;5048114;28;20688;-71
2022/08/26 16:13:44;;;;;;;8.43;7.47;;;23.90;99.90;;;;;;5041303;28;20473;-71
2022/08/26 16:16:12;;;;;;;7.33;6.40;;;23.30;99.90;;;;;;5040496;28;21135;-71
2022/08/26 16:18:39;;;;;;;7.17;6.57;;;22.90;99.90;;;;;;5043299;28;20490;-71
2022/08/26 16:21:07;;;;;;;8.53;7.60;;;22.70;99.90;;;;;;5036818;28;20956;-71
2022/08/26 16:23:35;;;;;;;8.00;7.30;;;22.50;99.90;;;;;;5048453;28;20436;-71
2022/08/26 16:26:08;;;;;;;8.63;7.80;;;22.30;99.90;;;;;;5049705;28;20450;-71
2022/08/26 16:28:37;;;;;;;12.17;7.63;;;22.20;99.90;;;;;;5048656;28;20909;-71
2022/08/26 16:31:04;;;;;;;12.60;8.20;;;22.10;99.90;;;;;;5049666;28;20501;-71
2022/08/26 16:33:30;;;;;;;7.33;6.63;;;21.90;99.90;;;;;;5049925;28;20440;-71
2022/08/26 16:35:57;;;;;;;7.70;6.97;;;21.80;99.90;;;;;;5049316;28;20458;-71
2022/08/26 16:38:25;;;;;;;8.17;7.37;;;21.70;99.90;;;;;;5049732;28;20985;-71
2022/08/26 16:40:51;;;;;;;7.43;6.73;;;21.70;99.90;;;;;;5049612;28;20454;-71
2022/08/26 16:43:18;;;;;;;9.97;7.57;;;21.70;99.90;;;;;;5050279;28;20440;-72
2022/08/26 16:45:47;;;;;;;11.13;7.73;;;21.60;99.90;;;;;;5037795;28;20919;-71
2022/08/26 16:48:14;;;;;;;8.10;7.30;;;21.40;99.90;;;;;;5052602;28;20547;-71
2022/08/26 16:50:41;;;;;;;12.77;8.07;;;21.20;99.90;;;;;;5053366;28;20436;-71
2022/08/26 16:53:08;;;;;;;8.10;7.30;;;21.00;99.90;;;;;;5053244;28;20534;-71
2022/08/26 16:55:36;;;;;;;10.73;7.70;;;20.80;99.90;;;;;;5052753;28;20550;-71
2022/08/26 16:58:03;;;;;;;9.70;8.60;;;20.60;99.90;;;;;;5052931;28;20467;-70
2022/08/26 17:00:33;;;;;;;8.50;7.70;;;20.30;99.90;;;;;;5053728;28;20450;-70
2022/08/26 17:03:02;;;;;;;9.63;8.40;;;20.00;99.90;;;;;;5050156;28;20511;-70
2022/08/26 17:05:29;;;;;;;8.00;6.97;;;19.80;99.90;;;;;;5045857;28;20440;-70
2022/08/26 17:07:58;;;;;;;7.40;6.03;;;19.60;99.90;;;;;;5053344;28;20538;-71
2022/08/26 17:10:27;;;;;;;7.10;6.40;;;19.60;99.90;;;;;;5052960;28;20447;-70
2022/08/26 17:12:54;;;;;;;7.00;6.40;;;19.40;99.90;;;;;;5053614;28;20517;-72
2022/08/26 17:15:22;;;;;;;6.30;5.73;;;19.40;99.90;;;;;;5053184;28;20486;-70
2022/08/26 17:17:49;;;;;;;5.67;4.47;;;19.30;99.90;;;;;;5049312;28;20449;-70
2022/08/26 17:20:18;;;;;;;7.33;4.57;;;19.20;99.90;;;;;;5046031;28;20463;-70
2022/08/26 17:22:48;;;;;;;2.90;2.60;;;19.10;99.90;;;;;;5041783;28;20455;-70
2022/08/26 17:25:19;;;;;;;4.37;2.27;;;19.10;99.90;;;;;;5043929;28;20448;-70
2022/08/26 17:27:46;;;;;;;2.17;1.97;;;19.20;99.90;;;;;;5050008;28;20445;-71
2022/08/26 17:30:15;;;;;;;4.13;2.50;;;19.10;99.90;;;;;;5051506;28;20467;-70
2022/08/26 17:32:42;;;;;;;5.30;2.33;;;19.00;99.90;;;;;;5051023;28;20937;-72
2022/08/26 17:35:10;;;;;;;4.07;2.70;;;18.90;99.90;;;;;;5051782;28;20489;-70
2022/08/26 17:37:39;;;;;;;4.13;2.57;;;18.70;99.90;;;;;;5052408;28;20820;-70
2022/08/26 17:40:09;;;;;;;5.43;2.80;;;18.60;99.90;;;;;;5041235;28;20480;-71
2022/08/26 17:42:36;;;;;;;4.13;3.10;;;18.60;99.90;;;;;;5049716;28;20756;-71
2022/08/26 17:45:04;;;;;;;5.23;4.53;;;18.60;99.90;;;;;;5047716;28;20484;-70
2022/08/26 17:47:31;;;;;;;5.13;3.93;;;18.50;99.90;;;;;;5039974;28;20479;-70
2022/08/26 17:50:00;;;;;;;5.90;4.00;;;18.50;99.90;;;;;;5039934;28;20473;-69
2022/08/26 17:52:27;;;;;;;4.50;3.60;;;18.40;99.90;;;;;;5045190;28;20514;-72
2022/08/26 17:54:55;;;;;;;4.07;3.40;;;18.30;99.90;;;;;;5034677;28;20494;-72
2022/08/26 17:57:22;;;;;;;5.20;4.70;;;18.30;99.90;;;;;;5045689;28;20468;-69
2022/08/26 17:59:50;;;;;;;7.77;6.10;;;18.30;99.90;;;;;;5048459;28;20466;-70
2022/08/26 18:02:17;;;;;;;12.00;8.40;;;18.50;99.90;;;;;;5047446;28;20480;-72
2022/08/26 18:04:44;;;;;;;11.80;10.60;;;18.50;99.90;;;;;;5050278;28;20440;-72
2022/08/26 18:07:11;;;;;;;12.80;11.57;;;18.60;99.90;;;;;;5050479;28;20458;-71
2022/08/26 18:09:38;;;;;;;15.93;14.23;;;18.60;99.90;;;;;;5053870;28;20642;-70
2022/08/26 18:12:07;;;;;;;17.00;14.73;;;18.70;99.90;;;;;;5049851;28;20436;-72
2022/08/26 18:14:34;;;;;;;21.60;14.83;;;18.80;99.90;;;;;;5050212;28;20480;-70
2022/08/26 18:17:01;;;;;;;16.67;14.07;;;18.90;99.90;;;;;;5046685;28;20547;-70
2022/08/26 18:19:30;;;;;;;22.80;16.30;;;19.00;99.90;;;;;;5039208;28;20546;-69
2022/08/26 18:21:57;;;;;;;19.40;14.87;;;19.00;99.90;;;;;;5045553;28;20829;-70
2022/08/26 18:24:24;;;;;;;15.23;13.80;;;19.00;99.90;;;;;;5046632;28;20467;-71
2022/08/26 18:26:50;;;;;;;14.53;13.03;;;19.00;99.90;;;;;;5047185;28;20523;-70
2022/08/26 18:29:20;;;;;;;11.13;10.03;;;19.00;99.90;;;;;;5044184;22;20504;-68
2022/08/26 18:31:47;;;;;;;13.23;11.93;;;18.90;99.90;;;;;;5011388;28;20496;-70
2022/08/26 18:34:15;;;;;;;13.50;12.30;;;18.90;99.90;;;;;;5015451;28;20484;-69
2022/08/26 18:36:43;;;;;;;13.80;12.50;;;18.90;99.90;;;;;;5007644;28;20847;-69
2022/08/26 18:39:12;;;;;;;14.23;12.83;;;18.90;99.90;;;;;;5018996;28;20475;-70
2022/08/26 18:41:41;;;;;;;13.20;11.90;;;18.90;99.90;;;;;;5008778;28;20461;-70
2022/08/26 18:44:09;;;;;;;14.03;12.70;;;19.00;99.90;;;;;;5022282;28;20483;-69
2022/08/26 18:46:37;;;;;;;17.57;14.13;;;18.90;99.90;;;;;;5017833;28;20451;-70
2022/08/26 18:49:05;;;;;;;14.60;13.20;;;19.00;99.90;;;;;;5015909;28;20465;-69
2022/08/26 18:51:33;;;;;;;14.17;12.87;;;19.00;99.90;;;;;;5019938;28;20449;-68
2022/08/26 18:54:02;;;;;;;14.33;12.90;;;19.00;99.90;;;;;;5002942;28;20644;-68
2022/08/26 18:56:29;;;;;;;14.17;12.77;;;19.00;99.90;;;;;;5000878;28;20450;-68
2022/08/26 18:58:57;;;;;;;13.20;11.80;;;18.90;99.90;;;;;;4999241;28;20488;-68
2022/08/26 19:01:24;;;;;;;14.03;12.70;;;18.90;99.90;;;;;;5004206;28;20831;-70
2022/08/26 19:03:53;;;;;;;47.43;20.03;;;19.00;99.90;;;;;;5009556;28;20447;-70
2022/08/26 19:06:22;;;;;;;16.00;14.40;;;19.00;99.90;;;;;;5001226;28;20474;-68
2022/08/26 19:08:49;;;;;;;15.30;13.73;;;19.10;99.90;;;;;;5005493;28;20990;-67
2022/08/26 19:11:18;;;;;;;14.03;12.60;;;19.00;99.90;;;;;;5015830;28;20919;-69
2022/08/26 19:13:45;;;;;;;16.50;14.43;;;18.90;99.90;;;;;;5020052;28;20449;-67
2022/08/26 19:16:17;;;;;;;15.23;13.80;;;18.90;99.90;;;;;;5020458;28;20492;-70
2022/08/26 19:18:44;;;;;;;13.47;12.27;;;18.90;99.90;;;;;;5018385;28;20483;-68
2022/08/26 19:21:13;;;;;;;17.70;14.17;;;18.90;99.90;;;;;;5020920;28;20457;-67
2022/08/26 19:23:40;;;;;;;15.83;14.27;;;18.80;99.90;;;;;;5019401;28;20787;-68
2022/08/26 19:26:08;;;;;;;14.53;13.10;;;18.90;99.90;;;;;;5019726;28;20437;-69
2022/08/26 19:28:36;;;;;;;16.10;14.40;;;18.80;99.90;;;;;;5013626;28;20535;-68
2022/08/26 19:31:03;;;;;;;16.10;14.53;;;18.80;99.90;;;;;;5006623;28;20455;-69
2022/08/26 19:33:30;;;;;;;17.10;15.50;;;18.70;99.90;;;;;;4995025;28;20698;-68
2022/08/26 19:35:57;;;;;;;14.37;13.10;;;18.70;99.90;;;;;;4992063;28;21150;-66
2022/08/26 19:38:25;;;;;;;20.10;16.03;;;18.70;99.90;;;;;;4992057;28;21179;-68
2022/08/26 19:40:52;;;;;;;19.33;17.43;;;18.70;99.90;;;;;;4998713;28;20892;-69
2022/08/26 19:43:19;;;;;;;18.27;16.37;;;18.80;99.90;;;;;;4995123;28;20549;-68
2022/08/26 19:45:46;;;;;;;18.40;16.53;;;18.80;99.90;;;;;;4998397;28;20446;-67
2022/08/26 19:48:13;;;;;;;16.20;14.77;;;18.80;99.90;;;;;;4998740;28;20473;-68
2022/08/26 19:50:41;;;;;;;21.20;16.13;;;18.80;99.90;;;;;;5000209;28;20462;-67
2022/08/26 19:53:09;;;;;;;24.13;17.50;;;18.80;99.90;;;;;;5000613;28;20473;-68
2022/08/26 19:55:37;;;;;;;19.27;17.37;;;18.70;99.90;;;;;;4998999;28;20501;-70
2022/08/26 19:58:04;;;;;;;17.60;15.87;;;18.70;99.90;;;;;;5000315;28;20584;-71
2022/08/26 20:00:32;;;;;;;16.43;14.50;;;18.70;99.90;;;;;;5001875;28;20538;-68
2022/08/26 20:02:59;;;;;;;17.20;15.50;;;18.70;99.90;;;;;;4998587;28;20454;-68
2022/08/26 20:05:26;;;;;;;18.23;15.60;;;18.60;99.90;;;;;;5006957;28;20533;-68
2022/08/26 20:07:54;;;;;;;17.37;14.13;;;18.70;99.90;;;;;;5006452;28;20564;-69
2022/08/26 20:10:23;;;;;;;18.43;16.63;;;18.80;99.90;;;;;;4997577;28;20445;-69
2022/08/26 20:12:51;;;;;;;16.73;14.83;;;18.70;99.90;;;;;;4999579;28;20459;-69
2022/08/26 20:15:20;;;;;;;17.57;15.70;;;18.80;99.90;;;;;;4995763;28;21049;-69
2022/08/26 20:17:47;;;;;;;17.23;15.53;;;18.70;99.90;;;;;;5002846;28;20474;-69
2022/08/26 20:23:08;;;;;;;17.40;15.67;;;18.60;99.90;;;;;;4964322;28;20955;-69
2022/08/26 20:25:35;;;;;;;17.30;15.70;;;18.60;99.90;;;;;;5004732;28;20441;-68
2022/08/26 20:28:04;;;;;;;17.37;14.90;;;18.60;99.90;;;;;;5005135;28;20481;-69
2022/08/26 20:30:30;;;;;;;17.13;15.37;;;18.60;99.90;;;;;;4996986;28;20450;-68
2022/08/26 20:32:57;;;;;;;18.30;16.33;;;18.60;99.90;;;;;;5003913;28;20450;-67
2022/08/26 20:35:24;;;;;;;17.67;15.80;;;18.60;99.90;;;;;;5002441;28;20485;-68
2022/08/26 20:37:51;;;;;;;22.47;18.63;;;18.70;99.90;;;;;;5007121;28;20472;-68
2022/08/26 20:40:18;;;;;;;21.20;18.90;;;18.60;99.90;;;;;;4998379;28;20457;-69
2022/08/26 20:42:44;;;;;;;19.00;16.27;;;18.60;99.90;;;;;;5008297;28;20450;-68
2022/08/26 20:45:13;;;;;;;19.23;16.20;;;18.70;99.90;;;;;;5002533;28;20446;-68
2022/08/26 20:47:40;;;;;;;18.33;16.43;;;18.60;99.90;;;;;;5007924;28;20466;-69
2022/08/26 20:50:08;;;;;;;21.00;17.30;;;18.60;99.90;;;;;;5005755;28;20461;-68
2022/08/26 20:52:35;;;;;;;19.50;17.57;;;18.50;99.90;;;;;;5003601;28;20446;-68
2022/08/26 20:55:02;;;;;;;18.83;16.87;;;18.50;99.90;;;;;;5005711;28;20485;-69
2022/08/26 20:57:28;;;;;;;16.97;15.27;;;18.40;99.90;;;;;;5005007;28;20478;-69
2022/08/26 20:59:55;;;;;;;18.63;16.80;;;18.30;99.90;;;;;;5002497;28;20459;-69
2022/08/26 21:02:24;;;;;;;19.00;17.10;;;18.30;99.90;;;;;;5003800;28;20466;-69
2022/08/26 21:04:50;;;;;;;22.07;19.60;;;18.40;99.90;;;;;;4996771;28;20449;-69
2022/08/26 21:07:19;;;;;;;20.33;18.33;;;18.40;99.90;;;;;;5002864;28;20470;-69
2022/08/26 21:09:46;;;;;;;21.53;19.37;;;18.40;99.90;;;;;;5006070;28;20910;-69
2022/08/26 21:12:13;;;;;;;22.17;19.03;;;18.30;99.90;;;;;;5005736;28;20453;-70
2022/08/26 21:14:40;;;;;;;20.23;18.13;;;18.30;99.90;;;;;;5006958;28;20442;-70
2022/08/26 21:17:06;;;;;;;19.90;17.90;;;18.30;99.90;;;;;;5005739;28;20540;-68
2022/08/26 21:19:34;;;;;;;20.80;18.70;;;18.40;99.90;;;;;;5005988;28;20748;-68